Navigator Spirit — C6WL4 — position and weather

sailwx.info

Track history (hours):
 
Tides and Currents Weather Stations Pressure Air Temp Water Temp Dewpoint Dewpoint Depression Visibility Wind Speed Wind Dir Waves Ship Positions

Navigator Spirit

Last reported at 2015-Jul-05 04:31 UTC. Time now 2015-Jul-07 13:15 UTC.
Position N 29°41' E 032°31'.

Length 241 m; draft 7.9 m.

Type: Tanker. MMSI: 309198000.

Date/timePositionNaut miles runAvg speedWind from/ knotsBaromVisibWave heightAir tempDewpointWater temp
2015-Jul-05 04:31N 29°41' E 032°31'34 8.2
2015-Jul-05 00:20N 30°15' E 032°31'8 9.6
2015-Jul-04 23:32N 30°20' E 032°24'38 9.4
2015-Jul-04 19:33N 30°57' E 032°19'10 9.7
2015-Jul-04 18:33N 31°07' E 032°18'10 8.3
2015-Jul-04 17:24N 31°16' E 032°19'6 7.1
2015-Jul-04 16:33N 31°22' E 032°21'3 3.0
2015-Jul-04 15:33N 31°23' E 032°18'1 0.0
2015-Jul-03 15:26N 31°22' E 032°18'14 7.3
2015-Jul-03 13:33N 31°34' E 032°10'1514.5
2015-Jul-03 12:30N 31°44' E 031°57'1514.7
2015-Jul-03 11:29N 31°50' E 031°40'  
2015-Jun-30 21:20N 35°54' E 016°01'1013.0
2015-Jun-30 20:33N 35°57' E 015°49'2613.0
2015-Jun-30 18:33N 36°05' E 015°18'1312.9
2015-Jun-30 17:33N 36°09' E 015°03'1312.8
2015-Jun-30 16:33N 36°12' E 014°48'1312.9
2015-Jun-30 15:33N 36°16' E 014°33'1312.9
2015-Jun-30 14:33N 36°20' E 014°17'1312.7
2015-Jun-30 13:33N 36°23' E 014°02'1312.7
2015-Jun-30 12:33N 36°26' E 013°47'1312.6
2015-Jun-30 11:33N 36°30' E 013°32'1212.4
2015-Jun-30 10:33N 36°34' E 013°17'1312.6
2015-Jun-30 09:33N 36°38' E 013°02'1312.8
2015-Jun-30 08:33N 36°42' E 012°47'1312.9
2015-Jun-30 07:33N 36°47' E 012°32'1313.0
2015-Jun-30 06:33N 36°53' E 012°18'1413.7
2015-Jun-30 05:33N 36°59' E 012°03'1313.5
2015-Jun-30 04:33N 37°06' E 011°48'1413.7
2015-Jun-30 03:33N 37°12' E 011°32'1513.7
2015-Jun-30 02:29N 37°19' E 011°17'1314.4
2015-Jun-30 01:33N 37°25' E 011°01'1515.0
2015-Jun-30 00:33N 37°29' E 010°43'1514.7
2015-Jun-29 23:33N 37°33' E 010°25'1514.8
2015-Jun-29 22:33N 37°34' E 010°07'1514.5
2015-Jun-29 21:33N 37°37' E 009°49'1514.6
2015-Jun-29 20:33N 37°42' E 009°31'1414.1
2015-Jun-29 19:33N 37°46' E 009°14'1313.6
2015-Jun-29 18:33N 37°51' E 008°58'1312.3
2015-Jun-29 17:27N 37°53' E 008°41'1411.5
2015-Jun-29 16:14N 37°56' E 008°24'18513.5
2015-Jun-29 02:32N 38°36' E 004°34'1313.8
2015-Jun-29 01:33N 38°39' E 004°17'1414.0
2015-Jun-29 00:33N 38°42' E 003°60'1414.0
2015-Jun-28 23:33N 38°45' E 003°42'1414.0
2015-Jun-28 22:33N 38°48' E 003°25'1413.9
2015-Jun-28 21:33N 38°51' E 003°07'1413.8
2015-Jun-28 20:33N 38°54' E 002°50'1413.5
2015-Jun-28 19:33N 38°59' E 002°34'1413.8
2015-Jun-28 18:33N 39°05' E 002°18'1414.1
2015-Jun-28 17:33N 39°12' E 002°02'1414.2
2015-Jun-28 16:33N 39°18' E 001°46'1413.9
2015-Jun-28 15:33N 39°24' E 001°30'1414.1
2015-Jun-28 14:33N 39°31' E 001°13'1414.1
2015-Jun-28 13:33N 39°37' E 000°57'1414.3
2015-Jun-28 12:33N 39°43' E 000°40'1414.2
2015-Jun-28 11:33N 39°49' E 000°24'1413.9
2015-Jun-28 10:33N 39°56' E 000°07'5 4.8
2015-Jun-28 09:33N 39°57' E 000°01'0 0.0
2015-Jun-27 01:29N 39°57' E 000°01'0 0.0
2015-Jun-26 14:04N 39°57' E 000°01'0 0.0
2015-Jun-26 13:33N 39°57' E 000°01'1 0.6
2015-Jun-26 12:33N 39°57' E 000°02'3 2.6
2015-Jun-26 11:33N 39°58' E 000°05'1 0.6
2015-Jun-26 09:22N 39°59' E 000°06'0 0.0
2015-Jun-26 07:22N 39°59' E 000°06'0 0.0
2015-Jun-26 03:10N 39°59' E 000°06'0 0.0
2015-Jun-26 02:28N 39°59' E 000°06'0 0.0
2015-Jun-25 13:28N 39°59' E 000°06'0 0.0
2015-Jun-25 12:31N 39°59' E 000°06'  
Track history (hours):
 
Tides and Currents Weather Stations Pressure Air Temp Water Temp Dewpoint Dewpoint Depression Visibility Wind Speed Wind Dir Waves Ship Positions

Navigator Spirit

Last reported at 2015-Jul-05 04:31 UTC. Time now 2015-Jul-07 13:15 UTC.
Position N 29°41' E 032°31'.

Length 241 m; draft 7.9 m.

Type: Tanker. MMSI: 309198000.

Date/timePositionNaut miles runAvg speedWind from/ knotsBaromVisibWave heightAir tempDewpointWater temp
2015-Jul-05 04:31N 29°41' E 032°31'34 8.2
2015-Jul-05 00:20N 30°15' E 032°31'8 9.6
2015-Jul-04 23:32N 30°20' E 032°24'38 9.4
2015-Jul-04 19:33N 30°57' E 032°19'10 9.7
2015-Jul-04 18:33N 31°07' E 032°18'10 8.3
2015-Jul-04 17:24N 31°16' E 032°19'6 7.1
2015-Jul-04 16:33N 31°22' E 032°21'3 3.0
2015-Jul-04 15:33N 31°23' E 032°18'1 0.0
2015-Jul-03 15:26N 31°22' E 032°18'14 7.3
2015-Jul-03 13:33N 31°34' E 032°10'1514.5
2015-Jul-03 12:30N 31°44' E 031°57'1514.7
2015-Jul-03 11:29N 31°50' E 031°40'  
2015-Jun-30 21:20N 35°54' E 016°01'1013.0
2015-Jun-30 20:33N 35°57' E 015°49'2613.0
2015-Jun-30 18:33N 36°05' E 015°18'1312.9
2015-Jun-30 17:33N 36°09' E 015°03'1312.8
2015-Jun-30 16:33N 36°12' E 014°48'1312.9
2015-Jun-30 15:33N 36°16' E 014°33'1312.9
2015-Jun-30 14:33N 36°20' E 014°17'1312.7
2015-Jun-30 13:33N 36°23' E 014°02'1312.7
2015-Jun-30 12:33N 36°26' E 013°47'1312.6
2015-Jun-30 11:33N 36°30' E 013°32'1212.4
2015-Jun-30 10:33N 36°34' E 013°17'1312.6
2015-Jun-30 09:33N 36°38' E 013°02'1312.8
2015-Jun-30 08:33N 36°42' E 012°47'1312.9
2015-Jun-30 07:33N 36°47' E 012°32'1313.0
2015-Jun-30 06:33N 36°53' E 012°18'1413.7
2015-Jun-30 05:33N 36°59' E 012°03'1313.5
2015-Jun-30 04:33N 37°06' E 011°48'1413.7
2015-Jun-30 03:33N 37°12' E 011°32'1513.7
2015-Jun-30 02:29N 37°19' E 011°17'1314.4
2015-Jun-30 01:33N 37°25' E 011°01'1515.0
2015-Jun-30 00:33N 37°29' E 010°43'1514.7
2015-Jun-29 23:33N 37°33' E 010°25'1514.8
2015-Jun-29 22:33N 37°34' E 010°07'1514.5
2015-Jun-29 21:33N 37°37' E 009°49'1514.6
2015-Jun-29 20:33N 37°42' E 009°31'1414.1
2015-Jun-29 19:33N 37°46' E 009°14'1313.6
2015-Jun-29 18:33N 37°51' E 008°58'1312.3
2015-Jun-29 17:27N 37°53' E 008°41'1411.5
2015-Jun-29 16:14N 37°56' E 008°24'18513.5
2015-Jun-29 02:32N 38°36' E 004°34'1313.8
2015-Jun-29 01:33N 38°39' E 004°17'1414.0
2015-Jun-29 00:33N 38°42' E 003°60'1414.0
2015-Jun-28 23:33N 38°45' E 003°42'1414.0
2015-Jun-28 22:33N 38°48' E 003°25'1413.9
2015-Jun-28 21:33N 38°51' E 003°07'1413.8
2015-Jun-28 20:33N 38°54' E 002°50'1413.5
2015-Jun-28 19:33N 38°59' E 002°34'1413.8
2015-Jun-28 18:33N 39°05' E 002°18'1414.1
2015-Jun-28 17:33N 39°12' E 002°02'1414.2
2015-Jun-28 16:33N 39°18' E 001°46'1413.9
2015-Jun-28 15:33N 39°24' E 001°30'1414.1
2015-Jun-28 14:33N 39°31' E 001°13'1414.1
2015-Jun-28 13:33N 39°37' E 000°57'1414.3
2015-Jun-28 12:33N 39°43' E 000°40'1414.2
2015-Jun-28 11:33N 39°49' E 000°24'1413.9
2015-Jun-28 10:33N 39°56' E 000°07'5 4.8
2015-Jun-28 09:33N 39°57' E 000°01'0 0.0
2015-Jun-27 01:29N 39°57' E 000°01'0 0.0
2015-Jun-26 14:04N 39°57' E 000°01'0 0.0
2015-Jun-26 13:33N 39°57' E 000°01'1 0.6
2015-Jun-26 12:33N 39°57' E 000°02'3 2.6
2015-Jun-26 11:33N 39°58' E 000°05'1 0.6
2015-Jun-26 09:22N 39°59' E 000°06'0 0.0
2015-Jun-26 07:22N 39°59' E 000°06'0 0.0
2015-Jun-26 03:10N 39°59' E 000°06'0 0.0
2015-Jun-26 02:28N 39°59' E 000°06'0 0.0
2015-Jun-25 13:28N 39°59' E 000°06'0 0.0
2015-Jun-25 12:31N 39°59' E 000°06'  

Dump ship's entire track history